sensor_id;sensor_type;location;lat;lon;timestamp;P1;P2;P0
62236;PMS5003;69163;48.778;2.308;2023-06-19T00:01:02;1;1;
62236;PMS5003;69163;48.778;2.308;2023-06-19T00:03:27;3;3;
62236;PMS5003;69163;48.778;2.308;2023-06-19T00:05:53;4;3;
62236;PMS5003;69163;48.778;2.308;2023-06-19T00:08:17;3;2;
62236;PMS5003;69163;48.778;2.308;2023-06-19T00:10:43;2;2;
62236;PMS5003;69163;48.778;2.308;2023-06-19T00:13:08;3;2;
62236;PMS5003;69163;48.778;2.308;2023-06-19T00:15:33;3;1;
62236;PMS5003;69163;48.778;2.308;2023-06-19T00:17:58;6;3;
62236;PMS5003;69163;48.778;2.308;2023-06-19T00:20:24;2;2;
62236;PMS5003;69163;48.778;2.308;2023-06-19T00:22:49;2;2;
62236;PMS5003;69163;48.778;2.308;2023-06-19T00:25:14;4;2;
62236;PMS5003;69163;48.778;2.308;2023-06-19T00:27:39;5;3;
62236;PMS5003;69163;48.778;2.308;2023-06-19T00:30:06;3;3;
62236;PMS5003;69163;48.778;2.308;2023-06-19T00:32:30;4;4;
62236;PMS5003;69163;48.778;2.308;2023-06-19T00:34:55;5;4;
62236;PMS5003;69163;48.778;2.308;2023-06-19T00:37:20;3;3;
62236;PMS5003;69163;48.778;2.308;2023-06-19T00:39:45;1;1;
62236;PMS5003;69163;48.778;2.308;2023-06-19T00:42:11;3;3;
62236;PMS5003;69163;48.778;2.308;2023-06-19T00:44:36;1;1;
62236;PMS5003;69163;48.778;2.308;2023-06-19T00:47:02;2;2;
62236;PMS5003;69163;48.778;2.308;2023-06-19T00:49:27;3;3;
62236;PMS5003;69163;48.778;2.308;2023-06-19T00:51:52;2;2;
62236;PMS5003;69163;48.778;2.308;2023-06-19T00:54:17;3;2;
62236;PMS5003;69163;48.778;2.308;2023-06-19T00:56:42;3;3;
62236;PMS5003;69163;48.778;2.308;2023-06-19T00:59:08;2;2;
62236;PMS5003;69163;48.778;2.308;2023-06-19T01:01:32;3;3;
62236;PMS5003;69163;48.778;2.308;2023-06-19T01:03:58;1;1;
62236;PMS5003;69163;48.778;2.308;2023-06-19T01:06:24;5;3;
62236;PMS5003;69163;48.778;2.308;2023-06-19T01:08:51;3;3;
62236;PMS5003;69163;48.778;2.308;2023-06-19T01:11:15;2;2;
62236;PMS5003;69163;48.778;2.308;2023-06-19T01:13:40;3;3;
62236;PMS5003;69163;48.778;2.308;2023-06-19T01:16:04;4;2;
62236;PMS5003;69163;48.778;2.308;2023-06-19T01:18:29;3;3;
62236;PMS5003;69163;48.778;2.308;2023-06-19T01:20:54;4;3;
62236;PMS5003;69163;48.778;2.308;2023-06-19T01:23:19;3;3;
62236;PMS5003;69163;48.778;2.308;2023-06-19T01:25:45;3;3;
62236;PMS5003;69163;48.778;2.308;2023-06-19T01:28:10;3;3;
62236;PMS5003;69163;48.778;2.308;2023-06-19T01:30:35;3;3;
62236;PMS5003;69163;48.778;2.308;2023-06-19T01:33:03;2;2;
62236;PMS5003;69163;48.778;2.308;2023-06-19T01:35:27;4;3;
62236;PMS5003;69163;48.778;2.308;2023-06-19T01:37:51;2;2;
62236;PMS5003;69163;48.778;2.308;2023-06-19T01:40:16;5;2;
62236;PMS5003;69163;48.778;2.308;2023-06-19T01:42:41;4;3;
62236;PMS5003;69163;48.778;2.308;2023-06-19T01:45:07;3;3;
62236;PMS5003;69163;48.778;2.308;2023-06-19T01:47:32;3;3;
62236;PMS5003;69163;48.778;2.308;2023-06-19T01:49:57;4;4;
62236;PMS5003;69163;48.778;2.308;2023-06-19T01:52:23;4;4;
62236;PMS5003;69163;48.778;2.308;2023-06-19T01:54:47;4;4;
62236;PMS5003;69163;48.778;2.308;2023-06-19T01:57:13;4;3;
62236;PMS5003;69163;48.778;2.308;2023-06-19T01:59:38;3;2;
62236;PMS5003;69163;48.778;2.308;2023-06-19T02:02:03;3;3;
62236;PMS5003;69163;48.778;2.308;2023-06-19T02:04:28;4;3;
62236;PMS5003;69163;48.778;2.308;2023-06-19T02:06:54;2;2;
62236;PMS5003;69163;48.778;2.308;2023-06-19T02:09:19;2;2;
62236;PMS5003;69163;48.778;2.308;2023-06-19T02:11:44;3;3;
62236;PMS5003;69163;48.778;2.308;2023-06-19T02:14:09;3;3;
62236;PMS5003;69163;48.778;2.308;2023-06-19T02:16:34;3;3;
62236;PMS5003;69163;48.778;2.308;2023-06-19T02:19:00;4;4;
62236;PMS5003;69163;48.778;2.308;2023-06-19T02:21:25;3;3;
62236;PMS5003;69163;48.778;2.308;2023-06-19T02:23:50;4;4;
62236;PMS5003;69163;48.778;2.308;2023-06-19T02:26:15;5;4;
62236;PMS5003;69163;48.778;2.308;2023-06-19T02:28:40;4;4;
62236;PMS5003;69163;48.778;2.308;2023-06-19T02:31:06;3;3;
62236;PMS5003;69163;48.778;2.308;2023-06-19T02:33:31;3;3;
62236;PMS5003;69163;48.778;2.308;2023-06-19T02:35:56;3;2;
62236;PMS5003;69163;48.778;2.308;2023-06-19T02:38:21;3;3;
62236;PMS5003;69163;48.778;2.308;2023-06-19T02:40:47;3;3;
62236;PMS5003;69163;48.778;2.308;2023-06-19T02:43:12;3;3;
62236;PMS5003;69163;48.778;2.308;2023-06-19T02:45:37;4;4;
62236;PMS5003;69163;48.778;2.308;2023-06-19T02:48:03;1;1;
62236;PMS5003;69163;48.778;2.308;2023-06-19T02:50:27;3;3;
62236;PMS5003;69163;48.778;2.308;2023-06-19T02:52:53;4;4;
62236;PMS5003;69163;48.778;2.308;2023-06-19T02:55:18;3;3;
62236;PMS5003;69163;48.778;2.308;2023-06-19T02:57:43;3;3;
62236;PMS5003;69163;48.778;2.308;2023-06-19T03:00:09;3;3;
62236;PMS5003;69163;48.778;2.308;2023-06-19T03:02:34;4;4;
62236;PMS5003;69163;48.778;2.308;2023-06-19T03:04:59;4;4;
62236;PMS5003;69163;48.778;2.308;2023-06-19T03:07:24;4;3;
62236;PMS5003;69163;48.778;2.308;2023-06-19T03:09:50;3;3;
62236;PMS5003;69163;48.778;2.308;2023-06-19T03:12:15;3;3;
62236;PMS5003;69163;48.778;2.308;2023-06-19T03:14:40;4;3;
62236;PMS5003;69163;48.778;2.308;2023-06-19T03:17:05;4;4;
62236;PMS5003;69163;48.778;2.308;2023-06-19T03:19:31;4;4;
62236;PMS5003;69163;48.778;2.308;2023-06-19T03:21:56;4;4;
62236;PMS5003;69163;48.778;2.308;2023-06-19T03:24:21;4;4;
62236;PMS5003;69163;48.778;2.308;2023-06-19T03:26:46;4;3;
62236;PMS5003;69163;48.778;2.308;2023-06-19T03:29:12;5;5;
62236;PMS5003;69163;48.778;2.308;2023-06-19T03:31:37;4;3;
62236;PMS5003;69163;48.778;2.308;2023-06-19T03:34:02;3;3;
62236;PMS5003;69163;48.778;2.308;2023-06-19T03:36:27;4;4;
62236;PMS5003;69163;48.778;2.308;2023-06-19T03:38:53;4;4;
62236;PMS5003;69163;48.778;2.308;2023-06-19T03:41:18;4;4;
62236;PMS5003;69163;48.778;2.308;2023-06-19T03:43:43;4;4;
62236;PMS5003;69163;48.778;2.308;2023-06-19T03:46:08;3;3;
62236;PMS5003;69163;48.778;2.308;2023-06-19T03:48:33;5;4;
62236;PMS5003;69163;48.778;2.308;2023-06-19T03:50:59;4;4;
62236;PMS5003;69163;48.778;2.308;2023-06-19T03:53:24;3;3;
62236;PMS5003;69163;48.778;2.308;2023-06-19T03:55:49;5;4;
62236;PMS5003;69163;48.778;2.308;2023-06-19T03:58:14;5;5;
62236;PMS5003;69163;48.778;2.308;2023-06-19T04:00:40;5;5;
62236;PMS5003;69163;48.778;2.308;2023-06-19T04:03:05;5;5;
62236;PMS5003;69163;48.778;2.308;2023-06-19T04:05:30;4;4;
62236;PMS5003;69163;48.778;2.308;2023-06-19T04:07:55;5;5;
62236;PMS5003;69163;48.778;2.308;2023-06-19T04:10:21;5;5;
62236;PMS5003;69163;48.778;2.308;2023-06-19T04:12:46;5;5;
62236;PMS5003;69163;48.778;2.308;2023-06-19T04:15:11;4;4;
62236;PMS5003;69163;48.778;2.308;2023-06-19T04:17:36;5;5;
62236;PMS5003;69163;48.778;2.308;2023-06-19T04:20:02;5;5;
62236;PMS5003;69163;48.778;2.308;2023-06-19T04:22:27;5;5;
62236;PMS5003;69163;48.778;2.308;2023-06-19T04:24:52;6;4;
62236;PMS5003;69163;48.778;2.308;2023-06-19T04:27:17;5;5;
62236;PMS5003;69163;48.778;2.308;2023-06-19T04:29:44;4;4;
62236;PMS5003;69163;48.778;2.308;2023-06-19T04:32:08;5;4;
62236;PMS5003;69163;48.778;2.308;2023-06-19T04:34:33;4;4;
62236;PMS5003;69163;48.778;2.308;2023-06-19T04:36:58;6;4;
62236;PMS5003;69163;48.778;2.308;2023-06-19T04:39:23;4;4;
62236;PMS5003;69163;48.778;2.308;2023-06-19T04:41:49;3;3;
62236;PMS5003;69163;48.778;2.308;2023-06-19T04:44:14;6;6;
62236;PMS5003;69163;48.778;2.308;2023-06-19T04:46:40;4;4;
62236;PMS5003;69163;48.778;2.308;2023-06-19T04:49:04;7;5;
62236;PMS5003;69163;48.778;2.308;2023-06-19T04:51:30;6;6;
62236;PMS5003;69163;48.778;2.308;2023-06-19T04:53:55;6;6;
62236;PMS5003;69163;48.778;2.308;2023-06-19T04:56:20;5;4;
62236;PMS5003;69163;48.778;2.308;2023-06-19T04:58:45;5;5;
62236;PMS5003;69163;48.778;2.308;2023-06-19T05:01:10;7;4;
62236;PMS5003;69163;48.778;2.308;2023-06-19T05:03:36;5;3;
62236;PMS5003;69163;48.778;2.308;2023-06-19T05:06:01;5;5;
62236;PMS5003;69163;48.778;2.308;2023-06-19T05:08:26;6;5;
62236;PMS5003;69163;48.778;2.308;2023-06-19T05:10:52;6;6;
62236;PMS5003;69163;48.778;2.308;2023-06-19T05:13:17;5;5;
62236;PMS5003;69163;48.778;2.308;2023-06-19T05:15:42;5;5;
62236;PMS5003;69163;48.778;2.308;2023-06-19T05:18:07;3;3;
62236;PMS5003;69163;48.778;2.308;2023-06-19T05:20:32;6;6;
62236;PMS5003;69163;48.778;2.308;2023-06-19T05:22:58;6;6;
62236;PMS5003;69163;48.778;2.308;2023-06-19T05:25:23;7;6;
62236;PMS5003;69163;48.778;2.308;2023-06-19T05:27:48;3;3;
62236;PMS5003;69163;48.778;2.308;2023-06-19T05:30:13;6;6;
62236;PMS5003;69163;48.778;2.308;2023-06-19T05:32:38;5;5;
62236;PMS5003;69163;48.778;2.308;2023-06-19T05:35:04;6;6;
62236;PMS5003;69163;48.778;2.308;2023-06-19T05:37:29;5;5;
62236;PMS5003;69163;48.778;2.308;2023-06-19T05:39:54;5;5;
62236;PMS5003;69163;48.778;2.308;2023-06-19T05:42:19;6;6;
62236;PMS5003;69163;48.778;2.308;2023-06-19T05:44:45;6;6;
62236;PMS5003;69163;48.778;2.308;2023-06-19T05:47:10;7;6;
62236;PMS5003;69163;48.778;2.308;2023-06-19T05:49:35;6;6;
62236;PMS5003;69163;48.778;2.308;2023-06-19T05:52:00;8;7;
62236;PMS5003;69163;48.778;2.308;2023-06-19T05:54:26;6;6;
62236;PMS5003;69163;48.778;2.308;2023-06-19T05:56:52;5;5;
62236;PMS5003;69163;48.778;2.308;2023-06-19T05:59:17;7;7;
62236;PMS5003;69163;48.778;2.308;2023-06-19T06:01:42;6;6;
62236;PMS5003;69163;48.778;2.308;2023-06-19T06:04:07;5;5;
62236;PMS5003;69163;48.778;2.308;2023-06-19T06:06:32;6;6;
62236;PMS5003;69163;48.778;2.308;2023-06-19T06:08:58;6;6;
62236;PMS5003;69163;48.778;2.308;2023-06-19T06:11:23;6;6;
62236;PMS5003;69163;48.778;2.308;2023-06-19T06:13:48;6;6;
62236;PMS5003;69163;48.778;2.308;2023-06-19T06:16:13;8;5;
62236;PMS5003;69163;48.778;2.308;2023-06-19T06:18:39;6;6;
62236;PMS5003;69163;48.778;2.308;2023-06-19T06:21:04;5;5;
62236;PMS5003;69163;48.778;2.308;2023-06-19T06:23:29;5;5;
62236;PMS5003;69163;48.778;2.308;2023-06-19T06:25:54;6;6;
62236;PMS5003;69163;48.778;2.308;2023-06-19T06:28:19;9;7;
62236;PMS5003;69163;48.778;2.308;2023-06-19T06:30:45;6;6;
62236;PMS5003;69163;48.778;2.308;2023-06-19T06:33:10;7;7;
62236;PMS5003;69163;48.778;2.308;2023-06-19T06:35:35;9;7;
62236;PMS5003;69163;48.778;2.308;2023-06-19T06:38:00;7;6;
62236;PMS5003;69163;48.778;2.308;2023-06-19T06:40:25;5;5;
62236;PMS5003;69163;48.778;2.308;2023-06-19T06:42:51;10;7;
62236;PMS5003;69163;48.778;2.308;2023-06-19T06:45:16;4;4;
62236;PMS5003;69163;48.778;2.308;2023-06-19T06:47:41;7;7;
62236;PMS5003;69163;48.778;2.308;2023-06-19T06:50:07;8;6;
62236;PMS5003;69163;48.778;2.308;2023-06-19T06:52:32;7;6;
62236;PMS5003;69163;48.778;2.308;2023-06-19T06:54:57;8;6;
62236;PMS5003;69163;48.778;2.308;2023-06-19T06:57:22;9;8;
62236;PMS5003;69163;48.778;2.308;2023-06-19T06:59:48;6;6;
62236;PMS5003;69163;48.778;2.308;2023-06-19T07:02:13;8;6;
62236;PMS5003;69163;48.778;2.308;2023-06-19T07:04:38;8;7;
62236;PMS5003;69163;48.778;2.308;2023-06-19T07:07:03;6;6;
62236;PMS5003;69163;48.778;2.308;2023-06-19T07:09:29;7;6;
62236;PMS5003;69163;48.778;2.308;2023-06-19T07:11:54;7;7;
62236;PMS5003;69163;48.778;2.308;2023-06-19T07:14:19;8;8;
62236;PMS5003;69163;48.778;2.308;2023-06-19T07:16:44;12;9;
62236;PMS5003;69163;48.778;2.308;2023-06-19T07:19:09;6;6;
62236;PMS5003;69163;48.778;2.308;2023-06-19T07:21:35;7;7;
62236;PMS5003;69163;48.778;2.308;2023-06-19T07:24:00;8;8;
62236;PMS5003;69163;48.778;2.308;2023-06-19T07:26:25;9;9;
62236;PMS5003;69163;48.778;2.308;2023-06-19T07:28:50;9;8;
62236;PMS5003;69163;48.778;2.308;2023-06-19T07:31:15;7;7;
62236;PMS5003;69163;48.778;2.308;2023-06-19T07:33:41;8;8;
62236;PMS5003;69163;48.778;2.308;2023-06-19T07:36:06;7;7;
62236;PMS5003;69163;48.778;2.308;2023-06-19T07:38:31;9;8;
62236;PMS5003;69163;48.778;2.308;2023-06-19T07:40:56;8;8;
62236;PMS5003;69163;48.778;2.308;2023-06-19T07:43:22;6;6;
62236;PMS5003;69163;48.778;2.308;2023-06-19T07:45:47;8;8;
62236;PMS5003;69163;48.778;2.308;2023-06-19T07:48:12;11;10;
62236;PMS5003;69163;48.778;2.308;2023-06-19T07:50:37;8;8;
62236;PMS5003;69163;48.778;2.308;2023-06-19T07:53:02;7;7;
62236;PMS5003;69163;48.778;2.308;2023-06-19T07:55:28;9;7;
62236;PMS5003;69163;48.778;2.308;2023-06-19T07:57:53;9;9;
62236;PMS5003;69163;48.778;2.308;2023-06-19T08:00:18;9;9;
62236;PMS5003;69163;48.778;2.308;2023-06-19T08:02:44;10;7;
62236;PMS5003;69163;48.778;2.308;2023-06-19T08:05:09;9;9;
62236;PMS5003;69163;48.778;2.308;2023-06-19T08:07:34;9;9;
62236;PMS5003;69163;48.778;2.308;2023-06-19T08:09:59;10;8;
62236;PMS5003;69163;48.778;2.308;2023-06-19T08:12:25;8;8;
62236;PMS5003;69163;48.778;2.308;2023-06-19T08:14:50;8;8;
62236;PMS5003;69163;48.778;2.308;2023-06-19T08:17:15;8;8;
62236;PMS5003;69163;48.778;2.308;2023-06-19T08:19:40;9;9;
62236;PMS5003;69163;48.778;2.308;2023-06-19T08:22:06;13;12;
62236;PMS5003;69163;48.778;2.308;2023-06-19T08:24:31;8;8;
62236;PMS5003;69163;48.778;2.308;2023-06-19T08:26:56;7;7;
62236;PMS5003;69163;48.778;2.308;2023-06-19T08:29:22;8;8;
62236;PMS5003;69163;48.778;2.308;2023-06-19T08:31:48;7;7;
62236;PMS5003;69163;48.778;2.308;2023-06-19T08:34:13;8;8;
62236;PMS5003;69163;48.778;2.308;2023-06-19T08:36:38;7;7;
62236;PMS5003;69163;48.778;2.308;2023-06-19T08:39:03;10;7;
62236;PMS5003;69163;48.778;2.308;2023-06-19T08:41:28;7;7;
62236;PMS5003;69163;48.778;2.308;2023-06-19T08:43:54;10;9;
62236;PMS5003;69163;48.778;2.308;2023-06-19T08:46:19;9;9;
62236;PMS5003;69163;48.778;2.308;2023-06-19T08:48:44;11;9;
62236;PMS5003;69163;48.778;2.308;2023-06-19T08:51:09;9;9;
62236;PMS5003;69163;48.778;2.308;2023-06-19T08:53:35;9;8;
62236;PMS5003;69163;48.778;2.308;2023-06-19T08:56:00;7;7;
62236;PMS5003;69163;48.778;2.308;2023-06-19T08:58:25;9;9;
62236;PMS5003;69163;48.778;2.308;2023-06-19T09:00:51;10;8;
62236;PMS5003;69163;48.778;2.308;2023-06-19T09:03:19;8;8;
62236;PMS5003;69163;48.778;2.308;2023-06-19T09:05:41;8;8;
62236;PMS5003;69163;48.778;2.308;2023-06-19T09:08:07;8;7;
62236;PMS5003;69163;48.778;2.308;2023-06-19T09:10:32;8;8;
62236;PMS5003;69163;48.778;2.308;2023-06-19T09:12:58;7;7;
62236;PMS5003;69163;48.778;2.308;2023-06-19T09:15:22;8;8;
62236;PMS5003;69163;48.778;2.308;2023-06-19T09:17:47;9;8;
62236;PMS5003;69163;48.778;2.308;2023-06-19T09:20:13;9;9;
62236;PMS5003;69163;48.778;2.308;2023-06-19T09:22:38;9;8;
62236;PMS5003;69163;48.778;2.308;2023-06-19T09:25:09;7;7;
62236;PMS5003;69163;48.778;2.308;2023-06-19T09:27:31;8;8;
62236;PMS5003;69163;48.778;2.308;2023-06-19T09:29:54;8;8;
62236;PMS5003;69163;48.778;2.308;2023-06-19T09:32:20;7;7;
62236;PMS5003;69163;48.778;2.308;2023-06-19T09:34:45;8;8;
62236;PMS5003;69163;48.778;2.308;2023-06-19T09:37:10;9;9;
62236;PMS5003;69163;48.778;2.308;2023-06-19T09:39:36;7;7;
62236;PMS5003;69163;48.778;2.308;2023-06-19T09:42:01;9;9;
62236;PMS5003;69163;48.778;2.308;2023-06-19T09:44:26;8;8;
62236;PMS5003;69163;48.778;2.308;2023-06-19T09:46:52;8;8;
62236;PMS5003;69163;48.778;2.308;2023-06-19T09:49:17;9;9;
62236;PMS5003;69163;48.778;2.308;2023-06-19T09:51:42;7;7;
62236;PMS5003;69163;48.778;2.308;2023-06-19T09:54:08;8;8;
62236;PMS5003;69163;48.778;2.308;2023-06-19T09:56:33;8;8;
62236;PMS5003;69163;48.778;2.308;2023-06-19T09:58:59;8;7;
62236;PMS5003;69163;48.778;2.308;2023-06-19T10:01:24;10;9;
62236;PMS5003;69163;48.778;2.308;2023-06-19T10:03:49;8;8;
62236;PMS5003;69163;48.778;2.308;2023-06-19T10:06:15;9;8;
62236;PMS5003;69163;48.778;2.308;2023-06-19T10:08:40;8;8;
62236;PMS5003;69163;48.778;2.308;2023-06-19T10:11:05;8;8;
62236;PMS5003;69163;48.778;2.308;2023-06-19T10:13:32;8;8;
62236;PMS5003;69163;48.778;2.308;2023-06-19T10:15:55;8;8;
62236;PMS5003;69163;48.778;2.308;2023-06-19T10:18:21;10;8;
62236;PMS5003;69163;48.778;2.308;2023-06-19T10:20:46;8;8;
62236;PMS5003;69163;48.778;2.308;2023-06-19T10:23:12;8;8;
62236;PMS5003;69163;48.778;2.308;2023-06-19T10:25:37;7;7;
62236;PMS5003;69163;48.778;2.308;2023-06-19T10:28:02;10;10;
62236;PMS5003;69163;48.778;2.308;2023-06-19T10:30:27;8;8;
62236;PMS5003;69163;48.778;2.308;2023-06-19T10:32:53;12;9;
62236;PMS5003;69163;48.778;2.308;2023-06-19T10:35:18;8;8;
62236;PMS5003;69163;48.778;2.308;2023-06-19T10:37:44;9;9;
62236;PMS5003;69163;48.778;2.308;2023-06-19T10:40:09;10;7;
62236;PMS5003;69163;48.778;2.308;2023-06-19T10:42:34;11;10;
62236;PMS5003;69163;48.778;2.308;2023-06-19T10:45:01;8;7;
62236;PMS5003;69163;48.778;2.308;2023-06-19T10:47:25;7;6;
62236;PMS5003;69163;48.778;2.308;2023-06-19T10:49:50;8;7;
62236;PMS5003;69163;48.778;2.308;2023-06-19T10:52:16;8;8;
62236;PMS5003;69163;48.778;2.308;2023-06-19T10:54:40;7;7;
62236;PMS5003;69163;48.778;2.308;2023-06-19T10:57:06;7;7;
62236;PMS5003;69163;48.778;2.308;2023-06-19T10:59:31;9;7;
62236;PMS5003;69163;48.778;2.308;2023-06-19T11:01:56;7;7;
62236;PMS5003;69163;48.778;2.308;2023-06-19T11:04:21;7;7;
62236;PMS5003;69163;48.778;2.308;2023-06-19T11:06:46;6;6;
62236;PMS5003;69163;48.778;2.308;2023-06-19T11:09:12;8;7;
62236;PMS5003;69163;48.778;2.308;2023-06-19T11:11:37;7;7;
62236;PMS5003;69163;48.778;2.308;2023-06-19T11:14:02;7;7;
62236;PMS5003;69163;48.778;2.308;2023-06-19T11:16:27;9;9;
62236;PMS5003;69163;48.778;2.308;2023-06-19T11:18:55;7;7;
62236;PMS5003;69163;48.778;2.308;2023-06-19T11:21:18;9;9;
62236;PMS5003;69163;48.778;2.308;2023-06-19T11:23:47;7;7;
62236;PMS5003;69163;48.778;2.308;2023-06-19T11:26:09;8;7;
62236;PMS5003;69163;48.778;2.308;2023-06-19T11:28:35;8;7;
62236;PMS5003;69163;48.778;2.308;2023-06-19T11:31:00;8;8;
62236;PMS5003;69163;48.778;2.308;2023-06-19T11:33:25;10;8;
62236;PMS5003;69163;48.778;2.308;2023-06-19T11:35:51;9;9;
62236;PMS5003;69163;48.778;2.308;2023-06-19T11:38:17;6;6;
62236;PMS5003;69163;48.778;2.308;2023-06-19T11:40:41;9;9;
62236;PMS5003;69163;48.778;2.308;2023-06-19T11:45:31;8;8;
62236;PMS5003;69163;48.778;2.308;2023-06-19T11:47:57;8;8;
62236;PMS5003;69163;48.778;2.308;2023-06-19T11:50:26;8;7;
62236;PMS5003;69163;48.778;2.308;2023-06-19T11:52:47;8;8;
62236;PMS5003;69163;48.778;2.308;2023-06-19T11:55:12;8;7;
62236;PMS5003;69163;48.778;2.308;2023-06-19T11:57:38;7;7;
62236;PMS5003;69163;48.778;2.308;2023-06-19T12:00:03;10;10;
62236;PMS5003;69163;48.778;2.308;2023-06-19T12:02:29;9;7;
62236;PMS5003;69163;48.778;2.308;2023-06-19T12:04:54;8;7;
62236;PMS5003;69163;48.778;2.308;2023-06-19T12:07:19;7;7;
62236;PMS5003;69163;48.778;2.308;2023-06-19T12:09:44;9;8;
62236;PMS5003;69163;48.778;2.308;2023-06-19T12:12:10;7;7;
62236;PMS5003;69163;48.778;2.308;2023-06-19T12:14:35;8;8;
62236;PMS5003;69163;48.778;2.308;2023-06-19T12:17:00;8;8;
62236;PMS5003;69163;48.778;2.308;2023-06-19T12:19:25;7;6;
62236;PMS5003;69163;48.778;2.308;2023-06-19T12:21:51;8;6;
62236;PMS5003;69163;48.778;2.308;2023-06-19T12:24:16;8;8;
62236;PMS5003;69163;48.778;2.308;2023-06-19T12:26:41;6;6;
62236;PMS5003;69163;48.778;2.308;2023-06-19T12:29:07;9;9;
62236;PMS5003;69163;48.778;2.308;2023-06-19T12:31:32;6;6;
62236;PMS5003;69163;48.778;2.308;2023-06-19T12:33:57;8;8;
62236;PMS5003;69163;48.778;2.308;2023-06-19T12:36:23;5;5;
62236;PMS5003;69163;48.778;2.308;2023-06-19T12:38:48;9;9;
62236;PMS5003;69163;48.778;2.308;2023-06-19T12:41:13;6;6;
62236;PMS5003;69163;48.778;2.308;2023-06-19T12:43:38;6;6;
62236;PMS5003;69163;48.778;2.308;2023-06-19T12:46:03;6;6;
62236;PMS5003;69163;48.778;2.308;2023-06-19T12:48:29;9;8;
62236;PMS5003;69163;48.778;2.308;2023-06-19T12:50:54;10;10;
62236;PMS5003;69163;48.778;2.308;2023-06-19T12:53:19;9;8;
62236;PMS5003;69163;48.778;2.308;2023-06-19T12:55:44;8;8;
62236;PMS5003;69163;48.778;2.308;2023-06-19T12:58:09;7;7;
62236;PMS5003;69163;48.778;2.308;2023-06-19T13:00:36;7;7;
62236;PMS5003;69163;48.778;2.308;2023-06-19T13:03:00;8;8;
62236;PMS5003;69163;48.778;2.308;2023-06-19T13:05:25;9;9;
62236;PMS5003;69163;48.778;2.308;2023-06-19T13:07:51;10;7;
62236;PMS5003;69163;48.778;2.308;2023-06-19T13:10:15;8;8;
62236;PMS5003;69163;48.778;2.308;2023-06-19T13:12:41;7;7;
62236;PMS5003;69163;48.778;2.308;2023-06-19T13:15:07;7;6;
62236;PMS5003;69163;48.778;2.308;2023-06-19T13:17:31;12;8;
62236;PMS5003;69163;48.778;2.308;2023-06-19T13:19:57;6;6;
62236;PMS5003;69163;48.778;2.308;2023-06-19T13:22:22;6;6;
62236;PMS5003;69163;48.778;2.308;2023-06-19T13:24:47;8;6;
62236;PMS5003;69163;48.778;2.308;2023-06-19T13:27:12;10;8;
62236;PMS5003;69163;48.778;2.308;2023-06-19T13:29:38;9;9;
62236;PMS5003;69163;48.778;2.308;2023-06-19T13:32:03;7;7;
62236;PMS5003;69163;48.778;2.308;2023-06-19T13:34:28;10;9;
62236;PMS5003;69163;48.778;2.308;2023-06-19T13:36:54;7;7;
62236;PMS5003;69163;48.778;2.308;2023-06-19T13:39:19;7;7;
62236;PMS5003;69163;48.778;2.308;2023-06-19T13:41:44;8;8;
62236;PMS5003;69163;48.778;2.308;2023-06-19T13:44:10;6;6;
62236;PMS5003;69163;48.778;2.308;2023-06-19T13:46:35;6;6;
62236;PMS5003;69163;48.778;2.308;2023-06-19T13:49:00;7;7;
62236;PMS5003;69163;48.778;2.308;2023-06-19T13:51:25;8;8;
62236;PMS5003;69163;48.778;2.308;2023-06-19T13:53:51;7;7;
62236;PMS5003;69163;48.778;2.308;2023-06-19T13:56:16;7;7;
62236;PMS5003;69163;48.778;2.308;2023-06-19T13:58:41;8;7;
62236;PMS5003;69163;48.778;2.308;2023-06-19T14:01:06;7;7;
62236;PMS5003;69163;48.778;2.308;2023-06-19T14:03:32;7;7;
62236;PMS5003;69163;48.778;2.308;2023-06-19T14:05:57;8;8;
62236;PMS5003;69163;48.778;2.308;2023-06-19T14:08:22;7;7;
62236;PMS5003;69163;48.778;2.308;2023-06-19T14:10:47;5;5;
62236;PMS5003;69163;48.778;2.308;2023-06-19T14:13:13;9;9;
62236;PMS5003;69163;48.778;2.308;2023-06-19T14:15:37;7;7;
62236;PMS5003;69163;48.778;2.308;2023-06-19T14:18:03;7;7;
62236;PMS5003;69163;48.778;2.308;2023-06-19T14:20:28;8;8;
62236;PMS5003;69163;48.778;2.308;2023-06-19T14:22:53;8;8;
62236;PMS5003;69163;48.778;2.308;2023-06-19T14:25:18;7;7;
62236;PMS5003;69163;48.778;2.308;2023-06-19T14:27:44;8;6;
62236;PMS5003;69163;48.778;2.308;2023-06-19T14:30:09;8;8;
62236;PMS5003;69163;48.778;2.308;2023-06-19T14:32:35;6;6;
62236;PMS5003;69163;48.778;2.308;2023-06-19T14:35:00;7;7;
62236;PMS5003;69163;48.778;2.308;2023-06-19T14:37:25;9;7;
62236;PMS5003;69163;48.778;2.308;2023-06-19T14:39:50;6;6;
62236;PMS5003;69163;48.778;2.308;2023-06-19T14:42:15;7;7;
62236;PMS5003;69163;48.778;2.308;2023-06-19T14:44:41;8;8;
62236;PMS5003;69163;48.778;2.308;2023-06-19T14:47:06;6;6;
62236;PMS5003;69163;48.778;2.308;2023-06-19T14:49:32;9;9;
62236;PMS5003;69163;48.778;2.308;2023-06-19T14:51:56;8;7;
62236;PMS5003;69163;48.778;2.308;2023-06-19T14:54:22;7;6;
62236;PMS5003;69163;48.778;2.308;2023-06-19T14:56:47;8;8;
62236;PMS5003;69163;48.778;2.308;2023-06-19T14:59:13;8;8;
62236;PMS5003;69163;48.778;2.308;2023-06-19T15:01:38;8;8;
62236;PMS5003;69163;48.778;2.308;2023-06-19T15:04:03;6;6;
62236;PMS5003;69163;48.778;2.308;2023-06-19T15:06:28;9;8;
62236;PMS5003;69163;48.778;2.308;2023-06-19T15:08:53;7;6;
62236;PMS5003;69163;48.778;2.308;2023-06-19T15:11:19;8;8;
62236;PMS5003;69163;48.778;2.308;2023-06-19T15:13:44;7;7;
62236;PMS5003;69163;48.778;2.308;2023-06-19T15:16:09;10;9;
62236;PMS5003;69163;48.778;2.308;2023-06-19T15:18:34;8;7;
62236;PMS5003;69163;48.778;2.308;2023-06-19T15:21:00;8;8;
62236;PMS5003;69163;48.778;2.308;2023-06-19T15:23:25;6;6;
62236;PMS5003;69163;48.778;2.308;2023-06-19T15:25:50;8;8;
62236;PMS5003;69163;48.778;2.308;2023-06-19T15:28:15;9;9;
62236;PMS5003;69163;48.778;2.308;2023-06-19T15:30:41;8;8;
62236;PMS5003;69163;48.778;2.308;2023-06-19T15:33:06;7;6;
62236;PMS5003;69163;48.778;2.308;2023-06-19T15:35:31;7;7;
62236;PMS5003;69163;48.778;2.308;2023-06-19T15:37:56;9;9;
62236;PMS5003;69163;48.778;2.308;2023-06-19T15:40:21;8;8;
62236;PMS5003;69163;48.778;2.308;2023-06-19T15:42:47;7;7;
62236;PMS5003;69163;48.778;2.308;2023-06-19T15:45:12;9;9;
62236;PMS5003;69163;48.778;2.308;2023-06-19T15:47:37;9;9;
62236;PMS5003;69163;48.778;2.308;2023-06-19T15:50:04;7;7;
62236;PMS5003;69163;48.778;2.308;2023-06-19T15:52:28;9;9;
62236;PMS5003;69163;48.778;2.308;2023-06-19T15:54:53;8;8;
62236;PMS5003;69163;48.778;2.308;2023-06-19T15:57:20;6;6;
62236;PMS5003;69163;48.778;2.308;2023-06-19T15:59:45;9;9;
62236;PMS5003;69163;48.778;2.308;2023-06-19T16:02:10;10;8;
62236;PMS5003;69163;48.778;2.308;2023-06-19T16:04:35;10;10;
62236;PMS5003;69163;48.778;2.308;2023-06-19T16:07:00;10;7;
62236;PMS5003;69163;48.778;2.308;2023-06-19T16:09:26;8;7;
62236;PMS5003;69163;48.778;2.308;2023-06-19T16:11:52;10;10;
62236;PMS5003;69163;48.778;2.308;2023-06-19T16:14:17;7;7;
62236;PMS5003;69163;48.778;2.308;2023-06-19T16:16:42;6;6;
62236;PMS5003;69163;48.778;2.308;2023-06-19T16:19:08;7;7;
62236;PMS5003;69163;48.778;2.308;2023-06-19T16:21:33;9;7;
62236;PMS5003;69163;48.778;2.308;2023-06-19T16:23:58;10;10;
62236;PMS5003;69163;48.778;2.308;2023-06-19T16:26:24;9;8;
62236;PMS5003;69163;48.778;2.308;2023-06-19T16:28:48;8;8;
62236;PMS5003;69163;48.778;2.308;2023-06-19T16:31:14;7;7;
62236;PMS5003;69163;48.778;2.308;2023-06-19T16:33:39;9;9;
62236;PMS5003;69163;48.778;2.308;2023-06-19T16:36:05;8;7;
62236;PMS5003;69163;48.778;2.308;2023-06-19T16:38:29;10;10;